Time;durP1;ratioP1;P1;durP2;ratioP2;P2;SDS_P1;SDS_P2;PMS_P1;PMS_P2;Temp;Humidity;BMP_temperature;BMP_pressure;BME280_temperature;BME280_humidity;BME280_pressure;Samples;Min_cycle;Max_cycle;Signal;HPM_P1;HPM_P2
2022/08/29 00:01:11;;;;;;;0.50;0.50;;;;;;;28.58;37.93;95061.38;5047853;28;20192;-70
2022/08/29 00:03:39;;;;;;;1.93;1.60;;;;;;;28.38;38.37;95065.28;5068792;28;20196;-72
2022/08/29 00:06:06;;;;;;;1.07;1.00;;;;;;;28.61;37.86;95052.53;5043235;28;20201;-75
2022/08/29 00:08:33;;;;;;;0.80;0.77;;;;;;;28.64;38.11;95057.22;5057538;28;20196;-71
2022/08/29 00:11:01;;;;;;;2.83;1.57;;;;;;;28.54;38.42;95057.84;5069908;28;20388;-73
2022/08/29 00:13:28;;;;;;;0.90;0.90;;;;;;;28.44;38.51;95055.75;5058672;28;20237;-74
2022/08/29 00:15:54;;;;;;;1.80;1.23;;;;;;;28.17;38.39;95053.44;5060243;28;20194;-74
2022/08/29 00:18:22;;;;;;;2.93;1.30;;;;;;;27.83;39.31;95055.16;5050959;28;20620;-73
2022/08/29 00:20:50;;;;;;;2.90;1.47;;;;;;;28.17;38.86;95056.91;5056029;28;20196;-70
2022/08/29 00:23:17;;;;;;;1.60;1.13;;;;;;;27.73;39.80;95045.03;5052911;28;20300;-74
2022/08/29 00:25:44;;;;;;;7.77;2.80;;;;;;;27.80;39.74;95050.50;5031395;28;20205;-72
2022/08/29 00:28:11;;;;;;;1.10;1.00;;;;;;;28.07;39.23;95054.81;5048784;28;20304;-67
2022/08/29 00:30:38;;;;;;;1.37;1.27;;;;;;;28.27;38.86;95052.78;5063020;28;20836;-72
2022/08/29 00:33:06;;;;;;;22.73;2.07;;;;;;;28.35;38.72;95051.78;5041440;28;20192;-71
2022/08/29 00:35:36;;;;;;;3.93;2.00;;;;;;;28.47;38.45;95052.31;5069413;28;20199;-69
2022/08/29 00:38:06;;;;;;;1.73;1.43;;;;;;;28.27;38.48;95048.19;5041346;28;20666;-71
2022/08/29 00:40:41;;;;;;;16.97;2.40;;;;;;;27.51;39.73;95053.88;5057826;28;20208;-73
2022/08/29 00:43:20;;;;;;;0.63;0.63;;;;;;;27.71;39.49;95048.06;5058029;28;20237;-71
2022/08/29 00:46:13;;;;;;;0.90;0.83;;;;;;;27.86;39.06;95049.09;5054173;28;20204;-72
2022/08/29 00:48:44;;;;;;;2.47;1.47;;;;;;;27.76;39.27;95049.66;5037487;28;20220;-74
2022/08/29 00:51:15;;;;;;;0.63;0.60;;;;;;;27.17;40.58;95042.06;5035563;28;20240;-70
2022/08/29 00:53:46;;;;;;;5.07;1.93;;;;;;;27.34;40.34;95043.56;5035563;28;20220;-75
2022/08/29 00:56:15;;;;;;;1.00;0.93;;;;;;;27.10;41.14;95044.63;5043029;28;20755;-73
2022/08/29 00:59:15;;;;;;;1.50;0.97;;;;;;;27.47;40.39;95059.19;5048186;28;20616;-73
2022/08/29 01:01:43;;;;;;;0.83;0.83;;;;;;;26.94;41.51;95042.03;5044224;28;20213;-75
2022/08/29 01:04:11;;;;;;;1.13;1.03;;;;;;;27.64;40.08;95052.56;5068205;28;20701;-73
2022/08/29 01:06:49;;;;;;;0.90;0.90;;;;;;;27.63;40.28;95051.78;5061145;28;20250;-67
2022/08/29 01:09:16;;;;;;;0.80;0.80;;;;;;;27.81;39.91;95049.38;5053682;28;20663;-68
2022/08/29 01:14:29;;;;;;;0.80;0.80;;;;;;;27.54;40.83;95053.16;5052383;28;20191;-69
2022/08/29 01:16:58;;;;;;;1.63;1.17;;;;;;;27.59;40.96;95042.09;5068356;28;20457;-69
2022/08/29 01:20:09;;;;;;;1.00;1.00;;;;;;;27.59;40.54;95050.19;5044223;28;20244;-71
2022/08/29 01:22:55;;;;;;;7.00;1.13;;;;;;;27.66;40.38;95044.91;5042477;28;20199;-75
2022/08/29 01:25:27;;;;;;;1.67;1.57;;;;;;;27.60;40.67;95051.72;5057589;28;20200;-77
2022/08/29 01:28:08;;;;;;;4.33;1.20;;;;;;;27.64;40.48;95049.88;5058814;28;20200;-75
2022/08/29 01:30:35;;;;;;;1.20;1.10;;;;;;;27.45;40.34;95049.91;5055312;28;20231;-77
2022/08/29 01:33:02;;;;;;;0.40;0.40;;;;;;;27.33;41.09;95058.16;5049983;28;20637;-70
2022/08/29 01:35:30;;;;;;;1.07;1.07;;;;;;;27.31;40.82;95047.75;5049561;28;20219;-73
2022/08/29 01:37:59;;;;;;;0.37;0.37;;;;;;;27.50;40.67;95052.31;5067251;28;20278;-75
2022/08/29 01:40:28;;;;;;;1.30;1.20;;;;;;;27.61;39.91;95047.91;5070502;28;20269;-76
2022/08/29 01:42:56;;;;;;;1.77;1.13;;;;;;;27.56;39.85;95048.19;5048101;28;20229;-68
2022/08/29 01:45:23;;;;;;;0.90;0.90;;;;;;;27.52;39.85;95040.03;5052109;28;20201;-68
2022/08/29 01:47:50;;;;;;;0.80;0.80;;;;;;;27.65;39.71;95054.09;5069498;28;20183;-72
2022/08/29 01:50:17;;;;;;;1.07;1.00;;;;;;;27.50;40.26;95042.31;5065969;28;20229;-70
2022/08/29 01:52:44;;;;;;;0.77;0.77;;;;;;;27.65;40.04;95049.50;5062156;28;20218;-70
2022/08/29 01:55:11;;;;;;;1.53;1.43;;;;;;;27.68;40.10;95042.63;5041841;28;20196;-71
2022/08/29 01:57:39;;;;;;;0.53;0.53;;;;;;;27.56;40.35;95050.88;5040208;28;20265;-70
2022/08/29 02:00:09;;;;;;;2.03;1.30;;;;;;;27.60;40.30;95052.50;5066545;28;20198;-71
2022/08/29 02:02:37;;;;;;;1.60;0.93;;;;;;;27.31;40.77;95049.66;5072645;28;20192;-75
2022/08/29 02:05:07;;;;;;;1.53;1.43;;;;;;;27.40;40.97;95059.06;5046693;28;20197;-70
2022/08/29 02:07:34;;;;;;;0.67;0.67;;;;;;;27.28;41.04;95071.88;5069246;28;20635;-74
2022/08/29 02:10:01;;;;;;;1.00;0.80;;;;;;;27.31;41.13;95060.44;5072428;28;20192;-74
2022/08/29 02:12:30;;;;;;;3.40;2.50;;;;;;;26.80;42.21;95062.50;5041096;28;20188;-71
2022/08/29 02:14:58;;;;;;;2.10;1.37;;;;;;;26.96;41.46;95060.50;5062818;28;20192;-75
2022/08/29 02:17:24;;;;;;;1.23;1.13;;;;;;;26.83;41.54;95061.78;5053358;28;20293;-76
2022/08/29 02:19:51;;;;;;;0.80;0.80;;;;;;;26.70;42.19;95065.72;5032577;28;20193;-72
2022/08/29 02:22:18;;;;;;;2.77;1.40;;;;;;;26.78;41.93;95068.22;5066552;28;20196;-67
2022/08/29 02:24:45;;;;;;;2.00;1.43;;;;;;;26.82;41.66;95060.97;5076636;28;20204;-69
2022/08/29 02:27:14;;;;;;;9.00;2.40;;;;;;;26.78;41.47;95070.91;5039841;28;20193;-76
2022/08/29 02:29:42;;;;;;;0.77;0.77;;;;;;;26.82;41.35;95071.75;5066252;28;20667;-74
2022/08/29 02:32:12;;;;;;;0.70;0.70;;;;;;;26.92;41.17;95068.50;5063881;28;20224;-67
2022/08/29 02:34:42;;;;;;;0.70;0.70;;;;;;;26.72;41.29;95071.53;5057760;28;20588;-75
2022/08/29 02:37:11;;;;;;;2.40;1.57;;;;;;;26.61;41.74;95065.91;5049460;28;20200;-72
2022/08/29 02:39:38;;;;;;;1.17;1.00;;;;;;;26.60;41.90;95075.13;5049278;28;20326;-76
2022/08/29 02:42:05;;;;;;;1.03;1.00;;;;;;;26.62;41.82;95066.69;5050379;28;20299;-69
2022/08/29 02:44:32;;;;;;;1.70;1.17;;;;;;;26.63;41.75;95069.03;5067760;28;20195;-71
2022/08/29 02:46:59;;;;;;;2.17;1.57;;;;;;;26.75;41.18;95070.84;5071513;28;20309;-70
2022/08/29 02:49:26;;;;;;;1.50;0.70;;;;;;;26.63;41.57;95066.34;5056727;28;20200;-73
2022/08/29 02:51:53;;;;;;;1.97;1.80;;;;;;;26.85;41.27;95070.25;5043038;28;20231;-76
2022/08/29 02:54:19;;;;;;;1.20;0.93;;;;;;;26.71;41.14;95064.59;5071543;28;20207;-70
2022/08/29 02:56:46;;;;;;;2.30;1.20;;;;;;;26.68;41.18;95076.84;5039575;28;20216;-70
2022/08/29 02:59:13;;;;;;;0.70;0.70;;;;;;;26.80;41.25;95084.00;5064709;28;20200;-75
2022/08/29 03:01:40;;;;;;;0.97;0.97;;;;;;;26.88;41.31;95081.09;5064276;28;20581;-69
2022/08/29 03:04:07;;;;;;;1.00;1.00;;;;;;;26.85;41.19;95087.19;5051236;28;20200;-71
2022/08/29 03:06:34;;;;;;;1.63;1.53;;;;;;;26.73;41.41;95084.63;5062542;28;20202;-71
2022/08/29 03:09:01;;;;;;;1.40;1.30;;;;;;;26.67;41.66;95086.00;5056904;28;20196;-68
2022/08/29 03:11:28;;;;;;;1.30;1.13;;;;;;;26.65;41.69;95098.25;5071353;28;20234;-73
2022/08/29 03:13:55;;;;;;;0.77;0.77;;;;;;;26.72;41.27;95091.13;5071049;28;20199;-72
2022/08/29 03:16:24;;;;;;;0.93;0.93;;;;;;;26.77;41.19;95090.84;5071462;28;20288;-75
2022/08/29 03:18:52;;;;;;;0.87;0.87;;;;;;;26.93;40.92;95088.13;5042263;28;20200;-69
2022/08/29 03:21:23;;;;;;;1.27;1.17;;;;;;;26.93;41.16;95101.56;5057529;28;20551;-71
2022/08/29 03:23:51;;;;;;;0.77;0.77;;;;;;;26.55;41.21;95083.44;5057664;28;20196;-77
2022/08/29 03:26:18;;;;;;;1.53;1.43;;;;;;;26.77;41.27;95101.59;5059711;28;20259;-72
2022/08/29 03:28:46;;;;;;;1.33;1.17;;;;;;;26.69;41.64;95097.22;5031197;28;20231;-71
2022/08/29 03:31:12;;;;;;;2.10;1.43;;;;;;;26.67;41.59;95091.38;5066952;28;20212;-71
2022/08/29 03:33:40;;;;;;;1.10;0.73;;;;;;;26.62;41.47;95105.09;5050500;28;20523;-70
2022/08/29 03:36:09;;;;;;;0.73;0.73;;;;;;;26.53;41.73;95107.19;5058660;28;20208;-72
2022/08/29 03:38:42;;;;;;;7.67;1.30;;;;;;;26.34;42.25;95104.47;5049452;28;20202;-72
2022/08/29 03:41:09;;;;;;;12.83;1.90;;;;;;;26.05;42.70;95113.00;5068694;28;20209;-73
2022/08/29 03:43:37;;;;;;;4.17;0.83;;;;;;;26.17;42.41;95110.19;5041718;28;20291;-68
2022/08/29 03:46:03;;;;;;;0.73;0.73;;;;;;;26.32;42.04;95104.03;5059225;28;20309;-72
2022/08/29 03:48:32;;;;;;;2.30;1.10;;;;;;;26.44;41.63;95109.28;5070490;28;20192;-71
2022/08/29 03:50:59;;;;;;;5.63;1.80;;;;;;;26.60;41.30;95101.22;5046025;28;20597;-73
2022/08/29 03:53:26;;;;;;;1.57;1.47;;;;;;;26.59;41.52;95100.41;5062523;28;20184;-70
2022/08/29 03:55:52;;;;;;;1.97;1.40;;;;;;;26.40;41.74;95116.53;5046816;28;20201;-72
2022/08/29 03:58:19;;;;;;;3.87;2.67;;;;;;;26.49;41.54;95111.72;5043750;28;20200;-67
2022/08/29 04:00:46;;;;;;;0.50;0.50;;;;;;;26.28;41.54;95111.22;5057058;28;20201;-78
2022/08/29 04:03:13;;;;;;;0.80;0.80;;;;;;;26.25;41.80;95111.94;5039575;28;20712;-70
2022/08/29 04:05:40;;;;;;;1.60;1.50;;;;;;;26.33;41.97;95118.25;5051821;28;20209;-75
2022/08/29 04:08:07;;;;;;;3.23;2.43;;;;;;;26.10;42.51;95120.00;5055007;28;20193;-72
2022/08/29 04:10:37;;;;;;;1.57;0.93;;;;;;;26.28;42.25;95121.97;5028130;28;20675;-71
2022/08/29 04:13:05;;;;;;;1.50;1.40;;;;;;;26.46;42.29;95122.41;5042726;28;20195;-72
2022/08/29 04:15:34;;;;;;;1.13;0.90;;;;;;;26.45;42.12;95116.25;5042952;28;20200;-72
2022/08/29 04:18:03;;;;;;;5.43;2.20;;;;;;;26.52;42.33;95129.84;5053571;28;20192;-66
2022/08/29 04:20:36;;;;;;;1.47;0.60;;;;;;;26.43;42.18;95123.09;5055760;28;20227;-69
2022/08/29 04:23:03;;;;;;;0.80;0.80;;;;;;;26.41;42.41;95131.50;5038255;28;20193;-67
2022/08/29 04:25:35;;;;;;;2.93;2.10;;;;;;;26.41;42.16;95131.50;5064552;28;20261;-69
2022/08/29 04:28:09;;;;;;;3.00;1.87;;;;;;;26.41;42.51;95130.72;5070714;28;20227;-68
2022/08/29 04:30:38;;;;;;;5.83;2.70;;;;;;;26.32;42.58;95133.59;5042164;28;20199;-67
2022/08/29 04:33:06;;;;;;;0.70;0.70;;;;;;;26.43;42.29;95140.00;5044874;28;20192;-66
2022/08/29 04:35:34;;;;;;;1.90;1.80;;;;;;;26.45;42.38;95140.44;5034219;28;20200;-66
2022/08/29 04:38:01;;;;;;;0.40;0.40;;;;;;;26.40;42.48;95135.31;5060249;28;20218;-65
2022/08/29 04:40:29;;;;;;;1.73;1.63;;;;;;;26.40;42.66;95135.31;5067961;28;20192;-68
2022/08/29 04:42:58;;;;;;;1.57;1.33;;;;;;;26.16;42.62;95130.16;5068262;28;20223;-67
2022/08/29 04:45:26;;;;;;;17.57;3.13;;;;;;;26.11;42.78;95133.09;5064958;28;20192;-67
2022/08/29 04:47:52;;;;;;;1.30;1.20;;;;;;;25.71;44.18;95149.31;5057071;28;20214;-67
2022/08/29 04:50:22;;;;;;;0.93;0.80;;;;;;;25.53;44.44;95141.94;5045670;28;20220;-69
2022/08/29 04:52:53;;;;;;;1.37;1.27;;;;;;;25.96;44.48;95152.66;5028253;28;20670;-66
2022/08/29 04:55:22;;;;;;;2.17;1.77;;;;;;;26.01;44.85;95149.69;5035119;28;20221;-66
2022/08/29 04:57:52;;;;;;;1.53;1.43;;;;;;;26.17;44.57;95158.56;5028607;28;20221;-71
2022/08/29 05:00:22;;;;;;;26.00;4.03;;;;;;;26.45;44.19;95153.88;5043084;28;20438;-66
2022/08/29 05:02:49;;;;;;;14.70;11.93;;;;;;;26.52;44.10;95154.03;5050843;28;20212;-65
2022/08/29 05:05:16;;;;;;;3.63;3.07;;;;;;;26.61;43.98;95162.69;5060513;28;20197;-63
2022/08/29 05:07:45;;;;;;;1.03;1.03;;;;;;;26.40;43.64;95135.31;5061960;28;20191;-64
2022/08/29 05:10:18;;;;;;;1.23;1.20;;;;;;;26.60;43.92;95169.19;5043584;28;20184;-70
2022/08/29 05:12:46;;;;;;;1.50;1.40;;;;;;;26.58;43.67;95163.38;5054944;28;20216;-67
2022/08/29 05:15:14;;;;;;;6.30;5.03;;;;;;;26.83;43.41;95169.34;5056245;28;20203;-66
2022/08/29 05:17:41;;;;;;;19.37;10.33;;;;;;;27.06;42.72;95172.13;5054446;28;20200;-66
2022/08/29 05:20:09;;;;;;;17.60;14.00;;;;;;;27.19;42.77;95171.63;5058658;28;20219;-70
2022/08/29 05:22:37;;;;;;;3.70;3.40;;;;;;;27.12;42.96;95178.78;5028372;28;20200;-66
2022/08/29 05:25:05;;;;;;;2.73;1.53;;;;;;;26.98;42.98;95172.00;5051386;28;20195;-66
2022/08/29 05:27:32;;;;;;;2.70;1.40;;;;;;;27.14;43.09;95168.44;5070534;28;20204;-66
2022/08/29 05:30:01;;;;;;;2.77;1.83;;;;;;;27.17;42.92;95173.91;5070414;28;20768;-66
2022/08/29 05:32:28;;;;;;;1.07;1.07;;;;;;;26.58;43.81;95179.50;5052648;28;20285;-64
2022/08/29 05:34:55;;;;;;;7.07;3.23;;;;;;;26.72;43.44;95174.47;5034841;28;20541;-66
2022/08/29 05:37:22;;;;;;;12.30;2.17;;;;;;;26.61;43.69;95181.50;5038402;28;20227;-63
2022/08/29 05:39:49;;;;;;;1.37;1.23;;;;;;;26.62;43.61;95183.03;5050248;28;20612;-71
2022/08/29 05:42:20;;;;;;;1.33;1.23;;;;;;;26.84;43.55;95193.19;5036266;28;20285;-64
2022/08/29 05:44:48;;;;;;;1.73;1.63;;;;;;;27.06;43.24;95194.44;5063830;28;20265;-66
2022/08/29 05:47:17;;;;;;;1.80;1.70;;;;;;;26.91;42.91;95177.22;5058339;28;20200;-66
2022/08/29 05:49:45;;;;;;;2.80;1.90;;;;;;;27.14;42.76;95187.28;5069519;28;20192;-65
2022/08/29 05:52:15;;;;;;;1.33;1.23;;;;;;;26.89;43.46;95187.53;5048839;28;20216;-64
2022/08/29 05:54:43;;;;;;;0.80;0.80;;;;;;;26.83;43.57;95186.25;5071756;28;20192;-64
2022/08/29 05:57:12;;;;;;;2.00;1.80;;;;;;;26.38;44.34;95191.31;5034629;28;20193;-64
2022/08/29 05:59:45;;;;;;;1.57;1.47;;;;;;;26.28;44.69;95194.50;5054477;28;20640;-68
2022/08/29 06:02:12;;;;;;;1.07;1.07;;;;;;;26.71;43.81;95188.28;5054860;28;20192;-65
2022/08/29 06:04:39;;;;;;;1.07;0.97;;;;;;;26.76;43.93;95191.47;5062016;28;20204;-64
2022/08/29 06:07:07;;;;;;;0.70;0.70;;;;;;;26.53;44.64;95192.44;5044437;28;20257;-64
2022/08/29 06:09:36;;;;;;;1.37;1.27;;;;;;;26.89;43.95;95190.22;5072957;28;20196;-67
2022/08/29 06:12:03;;;;;;;1.90;1.67;;;;;;;26.76;43.88;95196.84;5056359;28;20227;-62
2022/08/29 06:14:30;;;;;;;2.13;2.00;;;;;;;26.73;44.19;95186.78;5052296;28;20208;-67
2022/08/29 06:16:57;;;;;;;1.83;1.73;;;;;;;26.97;43.79;95189.25;5064665;28;20638;-64
2022/08/29 06:19:24;;;;;;;1.57;1.47;;;;;;;27.48;42.55;95199.94;5067278;28;20544;-64
2022/08/29 06:21:55;;;;;;;1.67;1.57;;;;;;;27.98;41.44;95197.06;5062984;28;20196;-64
2022/08/29 06:24:22;;;;;;;3.30;1.70;;;;;;;27.27;43.04;95200.25;5071562;28;20681;-69
2022/08/29 06:26:48;;;;;;;1.27;1.00;;;;;;;27.17;43.44;95197.34;5072275;28;20245;-66
2022/08/29 06:29:15;;;;;;;1.97;1.80;;;;;;;26.82;44.48;95168.53;5057675;28;20200;-64
2022/08/29 06:31:42;;;;;;;1.43;1.33;;;;;;;27.75;42.27;95190.84;5064017;28;20250;-69
2022/08/29 06:34:09;;;;;;;8.27;2.53;;;;;;;28.20;41.26;95193.59;5052610;28;20200;-68
2022/08/29 06:36:37;;;;;;;1.57;1.23;;;;;;;27.69;42.64;95187.66;5071829;28;20209;-68
2022/08/29 06:39:06;;;;;;;0.50;0.50;;;;;;;27.76;41.91;95190.50;5057815;28;20254;-63
2022/08/29 06:41:34;;;;;;;4.63;2.50;;;;;;;27.57;42.60;95192.44;5051564;28;20514;-67
2022/08/29 06:44:02;;;;;;;2.33;2.13;;;;;;;28.38;40.45;95189.28;5049955;28;20240;-65
2022/08/29 06:46:49;;;;;;;3.83;2.53;;;;;;;28.32;39.92;95188.03;5037491;28;20675;-66
2022/08/29 06:49:18;;;;;;;0.90;0.90;;;;;;;28.31;39.81;95193.78;5063982;28;20203;-68
2022/08/29 06:51:49;;;;;;;2.07;1.97;;;;;;;27.94;41.28;95190.84;5037333;28;20224;-66
2022/08/29 06:54:24;;;;;;;3.67;2.30;;;;;;;27.84;41.67;95202.19;5051494;28;20202;-66
2022/08/29 06:56:54;;;;;;;2.13;1.60;;;;;;;27.54;42.85;95195.81;5033801;28;20280;-70
2022/08/29 06:59:21;;;;;;;1.77;1.67;;;;;;;27.43;42.46;95200.22;5051269;28;20193;-67
2022/08/29 07:01:48;;;;;;;1.83;1.73;;;;;;;28.21;41.33;95208.63;5065145;28;20311;-69
2022/08/29 07:04:15;;;;;;;1.53;1.43;;;;;;;28.49;39.70;95195.63;5037412;28;20200;-64
2022/08/29 07:06:47;;;;;;;1.53;1.43;;;;;;;28.71;39.09;95205.63;5051527;28;20697;-67
2022/08/29 07:09:14;;;;;;;3.10;2.30;;;;;;;28.56;40.03;95195.75;5070414;28;20245;-68
2022/08/29 07:11:41;;;;;;;1.27;1.23;;;;;;;28.65;39.37;95209.00;5060159;28;20349;-67
2022/08/29 07:14:09;;;;;;;1.33;1.23;;;;;;;28.55;39.82;95209.63;5068343;28;20589;-65
2022/08/29 07:16:36;;;;;;;0.67;0.67;;;;;;;28.85;39.59;95205.84;5071400;28;20231;-70
2022/08/29 07:19:05;;;;;;;2.00;1.83;;;;;;;28.83;38.97;95210.81;5042482;28;20189;-65
2022/08/29 07:21:32;;;;;;;1.57;1.47;;;;;;;28.87;39.20;95217.03;5070783;28;20200;-67
2022/08/29 07:23:59;;;;;;;1.97;1.57;;;;;;;29.14;38.35;95219.78;5042880;28;20205;-66
2022/08/29 07:26:40;;;;;;;1.80;1.67;;;;;;;29.50;37.98;95210.97;5064238;28;20246;-69
2022/08/29 07:29:15;;;;;;;1.50;1.40;;;;;;;28.91;38.98;95209.00;5051006;28;20192;-67
2022/08/29 07:31:42;;;;;;;1.27;1.17;;;;;;;29.01;38.01;95204.91;5043007;28;20590;-68
2022/08/29 07:34:09;;;;;;;1.87;1.47;;;;;;;28.98;37.78;95217.97;5059599;28;20184;-66
2022/08/29 07:36:36;;;;;;;1.60;1.50;;;;;;;28.49;37.65;95222.59;5058772;28;20237;-66
2022/08/29 07:39:07;;;;;;;1.30;1.20;;;;;;;29.03;37.00;95216.91;5043680;28;20196;-68
2022/08/29 07:41:36;;;;;;;0.90;0.90;;;;;;;28.23;38.06;95211.75;5055870;28;20192;-63
2022/08/29 07:44:04;;;;;;;2.30;2.03;;;;;;;28.81;37.06;95218.50;5070734;28;20228;-69
2022/08/29 07:46:30;;;;;;;1.67;1.57;;;;;;;28.66;39.53;95211.34;5052831;28;20585;-65
2022/08/29 07:48:59;;;;;;;1.30;0.97;;;;;;;29.16;37.61;95220.19;5050419;28;20242;-67
2022/08/29 07:51:27;;;;;;;1.50;1.40;;;;;;;29.48;36.70;95224.84;5035832;28;20197;-64
2022/08/29 07:53:55;;;;;;;1.27;1.17;;;;;;;29.16;37.06;95218.25;5043478;28;20291;-63
2022/08/29 07:56:28;;;;;;;2.07;0.80;;;;;;;29.80;37.49;95214.44;5047705;28;20231;-67
2022/08/29 07:58:57;;;;;;;2.00;1.80;;;;;;;29.65;37.55;95207.31;5050167;28;20216;-67
2022/08/29 08:01:24;;;;;;;1.47;1.37;;;;;;;29.85;36.51;95206.03;5060735;28;20241;-67
2022/08/29 08:03:52;;;;;;;3.17;2.17;;;;;;;30.01;35.75;95203.09;5056101;28;20228;-65
2022/08/29 08:06:22;;;;;;;0.80;0.80;;;;;;;29.52;36.06;95200.59;5068983;28;20223;-68
2022/08/29 08:08:54;;;;;;;1.60;1.50;;;;;;;29.40;36.55;95195.41;5037421;28;20208;-65
2022/08/29 08:11:22;;;;;;;2.30;1.63;;;;;;;29.82;36.14;95195.94;5046830;28;20590;-65
2022/08/29 08:13:52;;;;;;;0.80;0.70;;;;;;;29.94;35.79;95203.81;5067896;28;20223;-66
2022/08/29 08:16:25;;;;;;;0.87;0.87;;;;;;;30.13;35.79;95162.28;5037636;28;20200;-65
2022/08/29 08:18:53;;;;;;;0.90;0.80;;;;;;;30.25;36.49;95199.84;5064221;28;20230;-65
2022/08/29 08:21:19;;;;;;;1.73;1.63;;;;;;;30.60;35.39;95194.75;5069701;28;20188;-66
2022/08/29 08:23:47;;;;;;;3.17;1.67;;;;;;;30.70;34.65;95197.53;5044219;28;20625;-64
2022/08/29 08:26:14;;;;;;;1.60;1.50;;;;;;;30.88;35.50;95187.66;5067404;28;20192;-66
2022/08/29 08:28:42;;;;;;;2.03;1.83;;;;;;;30.82;34.01;95189.16;5047421;28;20204;-64
2022/08/29 08:31:12;;;;;;;1.33;1.20;;;;;;;29.96;35.06;95185.28;5060556;28;20192;-66
2022/08/29 08:33:41;;;;;;;1.53;1.43;;;;;;;29.95;35.05;95183.72;5059603;28;20238;-65
2022/08/29 08:36:29;;;;;;;6.33;2.43;;;;;;;30.80;36.07;95191.41;5036250;28;20598;-64
2022/08/29 08:38:58;;;;;;;1.50;1.40;;;;;;;30.94;33.91;95182.66;5052346;28;20200;-65
2022/08/29 08:41:48;;;;;;;1.83;1.33;;;;;;;30.48;34.60;95190.41;5046830;28;20227;-66
2022/08/29 08:44:20;;;;;;;1.93;0.83;;;;;;;30.00;35.61;95196.88;5029285;28;20232;-63
2022/08/29 08:46:53;;;;;;;0.60;0.60;;;;;;;30.40;34.72;95182.63;5041679;28;20223;-66
2022/08/29 08:49:38;;;;;;;2.97;1.73;;;;;;;30.54;35.01;95174.63;5069060;28;20199;-66
2022/08/29 08:52:14;;;;;;;0.70;0.70;;;;;;;30.82;34.15;95178.31;5043784;28;20227;-66
2022/08/29 08:55:00;;;;;;;1.30;1.20;;;;;;;31.27;34.73;95176.25;5055233;28;20204;-66
2022/08/29 08:57:45;;;;;;;1.20;1.13;;;;;;;31.94;33.85;95174.59;5036503;28;20287;-65
2022/08/29 09:03:32;;;;;;;1.37;1.33;;;;;;;31.45;33.20;95166.31;5048743;28;20200;-66
2022/08/29 09:06:16;;;;;;;0.93;0.93;;;;;;;32.13;33.01;95165.34;5055427;28;20188;-67
2022/08/29 09:09:07;;;;;;;1.37;1.27;;;;;;;32.42;32.83;95162.28;5067935;28;20202;-68
2022/08/29 09:11:54;;;;;;;2.10;1.60;;;;;;;31.95;32.99;95156.41;5055637;28;20224;-65
2022/08/29 09:14:42;;;;;;;4.17;2.47;;;;;;;32.11;32.65;95154.88;5054123;28;20200;-66
2022/08/29 09:17:19;;;;;;;0.83;0.73;;;;;;;31.67;33.09;95157.09;5054583;28;20313;-65
2022/08/29 09:19:47;;;;;;;0.70;0.70;;;;;;;32.15;33.01;95150.25;5069280;28;20188;-66
2022/08/29 09:22:22;;;;;;;2.67;1.73;;;;;;;32.66;32.77;95158.75;5054748;28;20197;-66
2022/08/29 09:25:04;;;;;;;5.87;2.10;;;;;;;32.46;32.63;95168.47;5069313;28;20213;-64
2022/08/29 09:27:34;;;;;;;1.70;1.13;;;;;;;32.30;32.25;95151.78;5067214;28;20699;-64
2022/08/29 09:30:20;;;;;;;4.33;2.97;;;;;;;31.58;33.15;95153.97;5048846;28;20204;-64
2022/08/29 09:32:55;;;;;;;1.23;1.17;;;;;;;31.16;33.98;95148.34;5065905;28;20211;-66
2022/08/29 09:35:27;;;;;;;2.03;1.87;;;;;;;32.14;33.43;95148.69;5069294;28;20195;-64
2022/08/29 09:38:05;;;;;;;0.87;0.87;;;;;;;32.70;32.59;95143.25;5062387;28;20243;-63
2022/08/29 09:40:56;;;;;;;1.20;1.10;;;;;;;32.88;32.41;95137.03;5049968;28;20206;-64
2022/08/29 09:43:43;;;;;;;0.60;0.60;;;;;;;32.26;32.40;95140.16;5068445;28;20258;-64
2022/08/29 09:46:10;;;;;;;3.37;0.83;;;;;;;32.07;32.57;95139.75;5066839;28;20205;-65
2022/08/29 09:48:59;;;;;;;3.57;1.20;;;;;;;32.53;32.13;95144.06;5043636;28;20196;-65
2022/08/29 09:51:33;;;;;;;1.80;1.63;;;;;;;32.37;32.39;95135.50;5039995;28;20205;-63
2022/08/29 09:54:10;;;;;;;0.83;0.83;;;;;;;32.05;33.01;95137.44;5059952;28;20216;-64
2022/08/29 09:56:48;;;;;;;1.40;1.13;;;;;;;32.88;31.76;95115.31;5039287;28;20315;-65
2022/08/29 09:59:31;;;;;;;2.10;1.73;;;;;;;32.45;31.58;95128.94;5035863;28;20197;-64
2022/08/29 10:02:21;;;;;;;0.87;0.50;;;;;;;32.48;31.33;95125.44;5064047;28;20199;-66
2022/08/29 10:04:53;;;;;;;1.37;1.30;;;;;;;32.74;31.52;95122.31;5057951;28;20192;-66
2022/08/29 10:07:28;;;;;;;3.37;2.57;;;;;;;33.21;30.61;95106.69;5065438;28;20207;-64
2022/08/29 10:10:12;;;;;;;2.10;1.73;;;;;;;33.34;30.69;95121.41;5068724;28;20196;-64
2022/08/29 10:12:57;;;;;;;2.77;2.27;;;;;;;32.18;31.69;95118.84;5049550;28;20240;-66
2022/08/29 10:15:45;;;;;;;0.80;0.80;;;;;;;32.57;31.35;95112.25;5066429;28;20623;-66
2022/08/29 10:18:32;;;;;;;0.73;0.73;;;;;;;32.01;32.26;95114.22;5041781;28;20709;-65
2022/08/29 10:21:30;;;;;;;0.50;0.50;;;;;;;32.47;31.03;95106.84;5041922;28;20200;-66
2022/08/29 10:24:13;;;;;;;1.67;1.57;;;;;;;33.06;30.68;95099.78;5044249;28;20267;-66
2022/08/29 10:26:57;;;;;;;1.97;1.57;;;;;;;32.67;31.33;95089.78;5063163;28;20228;-66
2022/08/29 10:29:38;;;;;;;4.43;1.73;;;;;;;32.09;32.41;95097.56;5038226;28;20185;-66
2022/08/29 10:32:23;;;;;;;25.77;2.13;;;;;;;31.86;32.88;95095.19;5051832;28;20560;-67
2022/08/29 10:34:59;;;;;;;1.23;1.13;;;;;;;31.21;33.74;95101.94;5045993;28;20197;-64
2022/08/29 10:37:51;;;;;;;6.87;1.50;;;;;;;31.46;33.66;95103.63;5031546;28;20232;-65
2022/08/29 10:40:39;;;;;;;0.97;0.93;;;;;;;31.36;34.54;95092.75;5031979;28;20189;-68
2022/08/29 10:43:37;;;;;;;1.63;1.33;;;;;;;31.69;33.64;95090.53;5059742;28;20322;-66
2022/08/29 10:46:31;;;;;;;6.43;2.07;;;;;;;31.36;33.48;95092.75;5045764;28;20212;-62
2022/08/29 10:49:27;;;;;;;4.10;3.30;;;;;;;31.17;33.71;95091.09;5061937;28;20196;-65
2022/08/29 10:52:15;;;;;;;0.53;0.53;;;;;;;30.64;34.34;95092.75;5037974;28;20196;-69
2022/08/29 10:54:59;;;;;;;6.93;3.00;;;;;;;30.89;34.18;95096.41;5066253;28;20195;-65
2022/08/29 10:57:56;;;;;;;7.13;2.07;;;;;;;30.75;33.90;95097.09;5037235;28;20652;-66
2022/08/29 11:00:37;;;;;;;0.50;0.50;;;;;;;31.28;33.60;95091.13;5065507;28;20230;-67
2022/08/29 11:03:27;;;;;;;1.20;1.07;;;;;;;31.32;33.01;95091.94;5061340;28;20195;-67
2022/08/29 11:06:02;;;;;;;0.80;0.80;;;;;;;31.13;33.38;95086.84;5053263;28;20208;-68
2022/08/29 11:08:39;;;;;;;3.33;2.03;;;;;;;30.83;34.21;95085.19;5063831;28;20207;-66
2022/08/29 11:11:05;;;;;;;1.30;1.20;;;;;;;30.75;34.24;95070.03;5044188;28;20556;-66
2022/08/29 11:13:40;;;;;;;0.77;0.60;;;;;;;31.33;33.66;95077.25;5046266;28;20252;-64
2022/08/29 11:16:21;;;;;;;1.33;1.13;;;;;;;31.40;33.51;95067.25;5056012;28;20208;-64
2022/08/29 11:18:59;;;;;;;1.40;1.30;;;;;;;31.81;32.98;95060.34;5070972;28;20291;-65
2022/08/29 11:21:28;;;;;;;1.47;1.37;;;;;;;31.74;33.08;95048.72;5038397;28;20285;-67
2022/08/29 11:23:57;;;;;;;1.10;1.03;;;;;;;31.38;34.06;95049.81;5065249;28;20199;-67
2022/08/29 11:26:32;;;;;;;0.67;0.67;;;;;;;31.77;33.16;95037.09;5043169;28;20244;-65
2022/08/29 11:29:38;;;;;;;1.23;1.07;;;;;;;31.65;33.06;95042.91;5057414;28;20196;-66
2022/08/29 11:32:07;;;;;;;1.23;1.10;;;;;;;31.97;33.00;95045.66;5052912;28;20665;-66
2022/08/29 11:34:55;;;;;;;2.10;1.50;;;;;;;32.29;32.19;95035.56;5038919;28;20223;-66
2022/08/29 11:37:58;;;;;;;1.30;0.50;;;;;;;32.44;31.03;95040.59;5063746;28;20192;-66
2022/08/29 11:40:36;;;;;;;0.63;0.63;;;;;;;33.01;30.39;95048.59;5051363;28;20192;-65
2022/08/29 11:43:27;;;;;;;0.40;0.40;;;;;;;32.82;29.27;95030.78;5036546;28;20235;-64
2022/08/29 11:45:59;;;;;;;1.77;0.77;;;;;;;33.04;30.24;95032.28;5050821;28;20642;-66
2022/08/29 11:48:39;;;;;;;0.87;0.87;;;;;;;33.47;29.52;95032.84;5079719;28;20188;-67
2022/08/29 11:51:32;;;;;;;1.07;1.03;;;;;;;34.28;28.35;95027.59;5037532;28;20232;-68
2022/08/29 11:54:23;;;;;;;2.00;1.03;;;;;;;34.66;27.52;95023.72;5030259;28;20308;-67
2022/08/29 11:57:00;;;;;;;1.13;1.03;;;;;;;35.01;27.83;95019.06;5034378;28;20202;-67
2022/08/29 11:59:48;;;;;;;1.80;1.10;;;;;;;33.65;27.11;95022.63;5058987;28;20234;-65
2022/08/29 12:02:30;;;;;;;1.67;1.33;;;;;;;33.53;27.76;95021.16;5066092;28;20276;-69
2022/08/29 12:05:15;;;;;;;1.63;1.40;;;;;;;34.23;27.62;95014.44;5062013;28;20617;-64